sensor_id;sensor_type;location;lat;lon;timestamp;pressure;altitude;pressure_sealevel;temperature
27815;BMP280;15190;52.122;9.956;2023-03-01T00:01:59;102027.63;;;-1.90
27815;BMP280;15190;52.122;9.956;2023-03-01T00:04:25;102019.97;;;-1.98
27815;BMP280;15190;52.122;9.956;2023-03-01T00:06:51;102021.22;;;-2.01
27815;BMP280;15190;52.122;9.956;2023-03-01T00:09:17;102031.66;;;-2.04
27815;BMP280;15190;52.122;9.956;2023-03-01T00:11:44;102035.72;;;-2.04
27815;BMP280;15190;52.122;9.956;2023-03-01T00:14:10;102035.19;;;-2.02
27815;BMP280;15190;52.122;9.956;2023-03-01T00:16:39;102027.22;;;-2.06
27815;BMP280;15190;52.122;9.956;2023-03-01T00:19:07;102026.84;;;-2.09
27815;BMP280;15190;52.122;9.956;2023-03-01T00:21:33;102026.66;;;-2.11
27815;BMP280;15190;52.122;9.956;2023-03-01T00:24:01;102032.88;;;-2.07
27815;BMP280;15190;52.122;9.956;2023-03-01T00:26:27;102032.66;;;-2.09
27815;BMP280;15190;52.122;9.956;2023-03-01T00:28:54;102036.75;;;-2.09
27815;BMP280;15190;52.122;9.956;2023-03-01T00:31:23;102036.75;;;-2.09
27815;BMP280;15190;52.122;9.956;2023-03-01T00:33:53;102038.34;;;-2.10
27815;BMP280;15190;52.122;9.956;2023-03-01T00:36:25;102034.81;;;-2.12
27815;BMP280;15190;52.122;9.956;2023-03-01T00:38:51;102029.47;;;-2.15
27815;BMP280;15190;52.122;9.956;2023-03-01T00:41:19;102025.72;;;-2.18
27815;BMP280;15190;52.122;9.956;2023-03-01T00:43:45;102015.28;;;-2.23
27815;BMP280;15190;52.122;9.956;2023-03-01T00:46:14;102016.50;;;-2.26
27815;BMP280;15190;52.122;9.956;2023-03-01T00:48:41;102010.28;;;-2.30
27815;BMP280;15190;52.122;9.956;2023-03-01T00:51:11;102020.53;;;-2.33
27815;BMP280;15190;52.122;9.956;2023-03-01T00:53:37;102011.31;;;-2.34
27815;BMP280;15190;52.122;9.956;2023-03-01T00:56:04;102008.66;;;-2.36
27815;BMP280;15190;52.122;9.956;2023-03-01T00:58:31;102003.84;;;-2.41
27815;BMP280;15190;52.122;9.956;2023-03-01T01:00:57;102016.38;;;-2.47
27815;BMP280;15190;52.122;9.956;2023-03-01T01:03:23;102010.88;;;-2.51
27815;BMP280;15190;52.122;9.956;2023-03-01T01:05:54;102029.25;;;-2.56
27815;BMP280;15190;52.122;9.956;2023-03-01T01:08:20;102022.69;;;-2.56
27815;BMP280;15190;52.122;9.956;2023-03-01T01:10:46;102017.56;;;-2.57
27815;BMP280;15190;52.122;9.956;2023-03-01T01:13:13;102014.91;;;-2.59
27815;BMP280;15190;52.122;9.956;2023-03-01T01:15:40;102019.66;;;-2.60
27815;BMP280;15190;52.122;9.956;2023-03-01T01:18:06;102018.78;;;-2.61
27815;BMP280;15190;52.122;9.956;2023-03-01T01:20:34;102012.56;;;-2.64
27815;BMP280;15190;52.122;9.956;2023-03-01T01:23:00;102014.13;;;-2.65
27815;BMP280;15190;52.122;9.956;2023-03-01T01:25:26;102018.56;;;-2.69
27815;BMP280;15190;52.122;9.956;2023-03-01T01:27:52;102013.22;;;-2.72
27815;BMP280;15190;52.122;9.956;2023-03-01T01:30:18;102009.66;;;-2.74
27815;BMP280;15190;52.122;9.956;2023-03-01T01:32:44;102007.00;;;-2.75
27815;BMP280;15190;52.122;9.956;2023-03-01T01:35:10;102000.28;;;-2.76
27815;BMP280;15190;52.122;9.956;2023-03-01T01:37:35;102005.72;;;-2.79
27815;BMP280;15190;52.122;9.956;2023-03-01T01:40:02;102007.13;;;-2.81
27815;BMP280;15190;52.122;9.956;2023-03-01T01:42:31;101997.56;;;-2.85
27815;BMP280;15190;52.122;9.956;2023-03-01T01:45:34;101999.69;;;-2.88
27815;BMP280;15190;52.122;9.956;2023-03-01T01:48:05;101991.16;;;-2.90
27815;BMP280;15190;52.122;9.956;2023-03-01T01:50:33;101986.72;;;-2.92
27815;BMP280;15190;52.122;9.956;2023-03-01T01:53:10;101989.00;;;-2.94
27815;BMP280;15190;52.122;9.956;2023-03-01T01:55:42;101990.81;;;-2.93
27815;BMP280;15190;52.122;9.956;2023-03-01T01:58:09;101995.75;;;-2.93
27815;BMP280;15190;52.122;9.956;2023-03-01T02:00:37;101995.75;;;-2.93
27815;BMP280;15190;52.122;9.956;2023-03-01T02:03:07;101980.91;;;-2.93
27815;BMP280;15190;52.122;9.956;2023-03-01T02:08:19;101974.50;;;-2.98
27815;BMP280;15190;52.122;9.956;2023-03-01T02:10:49;101973.94;;;-3.02
27815;BMP280;15190;52.122;9.956;2023-03-01T02:13:15;101976.41;;;-3.02
27815;BMP280;15190;52.122;9.956;2023-03-01T02:15:42;101976.91;;;-3.05
27815;BMP280;15190;52.122;9.956;2023-03-01T02:18:12;101972.47;;;-3.07
27815;BMP280;15190;52.122;9.956;2023-03-01T02:23:21;101958.59;;;-3.19
27815;BMP280;15190;52.122;9.956;2023-03-01T02:28:50;101947.81;;;-3.19
27815;BMP280;15190;52.122;9.956;2023-03-01T02:31:19;101949.22;;;-3.21
27815;BMP280;15190;52.122;9.956;2023-03-01T02:34:04;101952.38;;;-3.22
27815;BMP280;15190;52.122;9.956;2023-03-01T02:36:35;101951.31;;;-3.24
27815;BMP280;15190;52.122;9.956;2023-03-01T02:39:04;101957.66;;;-3.26
27815;BMP280;15190;52.122;9.956;2023-03-01T02:41:37;101956.06;;;-3.26
27815;BMP280;15190;52.122;9.956;2023-03-01T02:44:04;101957.72;;;-3.19
27815;BMP280;15190;52.122;9.956;2023-03-01T02:46:30;101948.34;;;-3.22
27815;BMP280;15190;52.122;9.956;2023-03-01T02:48:57;101940.91;;;-3.22
27815;BMP280;15190;52.122;9.956;2023-03-01T02:54:25;101941.06;;;-3.27
27815;BMP280;15190;52.122;9.956;2023-03-01T02:56:54;101941.75;;;-3.28
27815;BMP280;15190;52.122;9.956;2023-03-01T02:59:24;101938.19;;;-3.30
27815;BMP280;15190;52.122;9.956;2023-03-01T03:01:52;101947.69;;;-3.33
27815;BMP280;15190;52.122;9.956;2023-03-01T03:04:19;101933.19;;;-3.37
27815;BMP280;15190;52.122;9.956;2023-03-01T03:06:48;101925.38;;;-3.40
27815;BMP280;15190;52.122;9.956;2023-03-01T03:09:15;101919.19;;;-3.44
27815;BMP280;15190;52.122;9.956;2023-03-01T03:11:41;101913.88;;;-3.47
27815;BMP280;15190;52.122;9.956;2023-03-01T03:14:09;101920.22;;;-3.49
27815;BMP280;15190;52.122;9.956;2023-03-01T03:16:47;101916.47;;;-3.52
27815;BMP280;15190;52.122;9.956;2023-03-01T03:19:14;101909.38;;;-3.56
27815;BMP280;15190;52.122;9.956;2023-03-01T03:21:40;101909.66;;;-3.60
27815;BMP280;15190;52.122;9.956;2023-03-01T03:24:06;101917.59;;;-3.62
27815;BMP280;15190;52.122;9.956;2023-03-01T03:26:32;101926.22;;;-3.66
27815;BMP280;15190;52.122;9.956;2023-03-01T03:28:58;101932.75;;;-3.66
27815;BMP280;15190;52.122;9.956;2023-03-01T03:31:24;101936.13;;;-3.66
27815;BMP280;15190;52.122;9.956;2023-03-01T03:33:50;101937.91;;;-3.65
27815;BMP280;15190;52.122;9.956;2023-03-01T03:36:19;101936.84;;;-3.67
27815;BMP280;15190;52.122;9.956;2023-03-01T03:38:46;101936.63;;;-3.68
27815;BMP280;15190;52.122;9.956;2023-03-01T03:41:12;101932.38;;;-3.69
27815;BMP280;15190;52.122;9.956;2023-03-01T03:43:39;101925.47;;;-3.72
27815;BMP280;15190;52.122;9.956;2023-03-01T03:46:06;101927.75;;;-3.73
27815;BMP280;15190;52.122;9.956;2023-03-01T03:48:34;101921.22;;;-3.73
27815;BMP280;15190;52.122;9.956;2023-03-01T03:51:00;101923.50;;;-3.74
27815;BMP280;15190;52.122;9.956;2023-03-01T03:53:28;101926.88;;;-3.74
27815;BMP280;15190;52.122;9.956;2023-03-01T03:56:01;101917.47;;;-3.76
27815;BMP280;15190;52.122;9.956;2023-03-01T03:58:27;101915.53;;;-3.79
27815;BMP280;15190;52.122;9.956;2023-03-01T04:00:55;101925.22;;;-3.80
27815;BMP280;15190;52.122;9.956;2023-03-01T04:03:25;101926.41;;;-3.84
27815;BMP280;15190;52.122;9.956;2023-03-01T04:05:51;101924.44;;;-3.86
27815;BMP280;15190;52.122;9.956;2023-03-01T04:08:19;101924.25;;;-3.88
27815;BMP280;15190;52.122;9.956;2023-03-01T04:10:48;101927.59;;;-3.87
27815;BMP280;15190;52.122;9.956;2023-03-01T04:13:17;101919.31;;;-3.88
27815;BMP280;15190;52.122;9.956;2023-03-01T04:15:46;101925.34;;;-3.86
27815;BMP280;15190;52.122;9.956;2023-03-01T04:18:15;101925.13;;;-3.87
27815;BMP280;15190;52.122;9.956;2023-03-01T04:20:41;101927.44;;;-3.88
27815;BMP280;15190;52.122;9.956;2023-03-01T04:23:10;101929.00;;;-3.89
27815;BMP280;15190;52.122;9.956;2023-03-01T04:25:58;101928.81;;;-3.90
27815;BMP280;15190;52.122;9.956;2023-03-01T04:28:29;101927.91;;;-3.91
27815;BMP280;15190;52.122;9.956;2023-03-01T04:30:57;101929.00;;;-3.89
27815;BMP280;15190;52.122;9.956;2023-03-01T04:33:25;101919.31;;;-3.88
27815;BMP280;15190;52.122;9.956;2023-03-01T04:35:51;101935.03;;;-3.87
27815;BMP280;15190;52.122;9.956;2023-03-01T04:38:19;101925.66;;;-3.89
27815;BMP280;15190;52.122;9.956;2023-03-01T04:40:45;101932.00;;;-3.91
27815;BMP280;15190;52.122;9.956;2023-03-01T04:43:12;101930.91;;;-3.93
27815;BMP280;15190;52.122;9.956;2023-03-01T04:45:41;101922.72;;;-3.99
27815;BMP280;15190;52.122;9.956;2023-03-01T04:48:07;101924.50;;;-3.98
27815;BMP280;15190;52.122;9.956;2023-03-01T04:50:33;101932.44;;;-4.01
27815;BMP280;15190;52.122;9.956;2023-03-01T04:52:58;101929.56;;;-4.04
27815;BMP280;15190;52.122;9.956;2023-03-01T04:55:26;101931.16;;;-4.04
27815;BMP280;15190;52.122;9.956;2023-03-01T04:57:52;101928.69;;;-4.04
27815;BMP280;15190;52.122;9.956;2023-03-01T05:00:19;101926.00;;;-4.06
27815;BMP280;15190;52.122;9.956;2023-03-01T05:02:50;101916.66;;;-4.08
27815;BMP280;15190;52.122;9.956;2023-03-01T05:05:23;101910.53;;;-4.17
27815;BMP280;15190;52.122;9.956;2023-03-01T05:07:58;101928.19;;;-4.14
27815;BMP280;15190;52.122;9.956;2023-03-01T05:10:27;101925.53;;;-4.16
27815;BMP280;15190;52.122;9.956;2023-03-01T05:12:55;101917.03;;;-4.18
27815;BMP280;15190;52.122;9.956;2023-03-01T05:15:26;101927.44;;;-4.20
27815;BMP280;15190;52.122;9.956;2023-03-01T05:17:55;101908.06;;;-4.17
27815;BMP280;15190;52.122;9.956;2023-03-01T05:20:24;101916.16;;;-4.18
27815;BMP280;15190;52.122;9.956;2023-03-01T05:22:52;101923.69;;;-4.24
27815;BMP280;15190;52.122;9.956;2023-03-01T05:25:20;101919.94;;;-4.27
27815;BMP280;15190;52.122;9.956;2023-03-01T05:27:47;101911.16;;;-4.25
27815;BMP280;15190;52.122;9.956;2023-03-01T05:30:14;101912.22;;;-4.23
27815;BMP280;15190;52.122;9.956;2023-03-01T05:32:50;101907.13;;;-4.25
27815;BMP280;15190;52.122;9.956;2023-03-01T05:35:21;101912.06;;;-4.25
27815;BMP280;15190;52.122;9.956;2023-03-01T05:37:49;101919.47;;;-4.25
27815;BMP280;15190;52.122;9.956;2023-03-01T05:40:20;101912.06;;;-4.25
27815;BMP280;15190;52.122;9.956;2023-03-01T05:42:47;101910.25;;;-4.26
27815;BMP280;15190;52.122;9.956;2023-03-01T05:45:15;101908.00;;;-4.24
27815;BMP280;15190;52.122;9.956;2023-03-01T05:47:44;101909.75;;;-4.23
27815;BMP280;15190;52.122;9.956;2023-03-01T05:50:16;101911.53;;;-4.22
27815;BMP280;15190;52.122;9.956;2023-03-01T05:53:06;101915.00;;;-4.27
27815;BMP280;15190;52.122;9.956;2023-03-01T05:55:33;101910.25;;;-4.26
27815;BMP280;15190;52.122;9.956;2023-03-01T05:58:01;101917.69;;;-4.26
27815;BMP280;15190;52.122;9.956;2023-03-01T06:00:28;101919.94;;;-4.27
27815;BMP280;15190;52.122;9.956;2023-03-01T06:02:56;101914.44;;;-4.31
27815;BMP280;15190;52.122;9.956;2023-03-01T06:05:23;101915.31;;;-4.31
27815;BMP280;15190;52.122;9.956;2023-03-01T06:07:49;101911.06;;;-4.32
27815;BMP280;15190;52.122;9.956;2023-03-01T06:10:17;101914.25;;;-4.33
27815;BMP280;15190;52.122;9.956;2023-03-01T06:12:43;101910.50;;;-4.36
27815;BMP280;15190;52.122;9.956;2023-03-01T06:15:11;101903.97;;;-4.36
27815;BMP280;15190;52.122;9.956;2023-03-01T06:17:39;101905.56;;;-4.36
27815;BMP280;15190;52.122;9.956;2023-03-01T06:20:10;101908.03;;;-4.36
27815;BMP280;15190;52.122;9.956;2023-03-01T06:22:37;101906.44;;;-4.36
27815;BMP280;15190;52.122;9.956;2023-03-01T06:25:03;101911.38;;;-4.36
27815;BMP280;15190;52.122;9.956;2023-03-01T06:27:30;101901.50;;;-4.36
27815;BMP280;15190;52.122;9.956;2023-03-01T06:29:55;101895.56;;;-4.31
27815;BMP280;15190;52.122;9.956;2023-03-01T06:32:21;101901.38;;;-4.30
27815;BMP280;15190;52.122;9.956;2023-03-01T06:34:47;101909.00;;;-4.29
27815;BMP280;15190;52.122;9.956;2023-03-01T06:37:13;101909.66;;;-4.30
27815;BMP280;15190;52.122;9.956;2023-03-01T06:39:39;101905.31;;;-4.26
27815;BMP280;15190;52.122;9.956;2023-03-01T06:42:05;101908.00;;;-4.24
27815;BMP280;15190;52.122;9.956;2023-03-01T06:44:31;101899.88;;;-4.23
27815;BMP280;15190;52.122;9.956;2023-03-01T06:46:56;101910.16;;;-4.20
27815;BMP280;15190;52.122;9.956;2023-03-01T06:49:22;101908.97;;;-4.17
27815;BMP280;15190;52.122;9.956;2023-03-01T06:51:48;101909.50;;;-4.12
27815;BMP280;15190;52.122;9.956;2023-03-01T06:54:14;101904.09;;;-4.10
27815;BMP280;15190;52.122;9.956;2023-03-01T06:56:46;101904.84;;;-4.04
27815;BMP280;15190;52.122;9.956;2023-03-01T06:59:12;101905.06;;;-4.02
27815;BMP280;15190;52.122;9.956;2023-03-01T07:01:38;101906.13;;;-4.00
27815;BMP280;15190;52.122;9.956;2023-03-01T07:04:04;101908.66;;;-3.93
27815;BMP280;15190;52.122;9.956;2023-03-01T07:06:30;101909.03;;;-3.90
27815;BMP280;15190;52.122;9.956;2023-03-01T07:08:56;101901.00;;;-3.83
27815;BMP280;15190;52.122;9.956;2023-03-01T07:11:22;101912.72;;;-3.75
27815;BMP280;15190;52.122;9.956;2023-03-01T07:13:48;101907.72;;;-3.82
27815;BMP280;15190;52.122;9.956;2023-03-01T07:16:14;101896.00;;;-3.70
27815;BMP280;15190;52.122;9.956;2023-03-01T07:18:41;101896.88;;;-3.70
27815;BMP280;15190;52.122;9.956;2023-03-01T07:21:08;101892.94;;;-3.55
27815;BMP280;15190;52.122;9.956;2023-03-01T07:23:34;101886.66;;;-3.47
27815;BMP280;15190;52.122;9.956;2023-03-01T07:26:00;101890.72;;;-3.47
27815;BMP280;15190;52.122;9.956;2023-03-01T07:28:27;101895.53;;;-3.42
27815;BMP280;15190;52.122;9.956;2023-03-01T07:30:53;101889.59;;;-3.30
27815;BMP280;15190;52.122;9.956;2023-03-01T07:33:20;101884.16;;;-3.27
27815;BMP280;15190;52.122;9.956;2023-03-01T07:35:46;101887.00;;;-3.24
27815;BMP280;15190;52.122;9.956;2023-03-01T07:38:12;101876.47;;;-3.16
27815;BMP280;15190;52.122;9.956;2023-03-01T07:40:37;101885.34;;;-3.05
27815;BMP280;15190;52.122;9.956;2023-03-01T07:43:03;101870.53;;;-2.98
27815;BMP280;15190;52.122;9.956;2023-03-01T07:45:29;101883.84;;;-2.90
27815;BMP280;15190;52.122;9.956;2023-03-01T07:47:55;101870.47;;;-2.78
27815;BMP280;15190;52.122;9.956;2023-03-01T07:50:22;101871.88;;;-2.73
27815;BMP280;15190;52.122;9.956;2023-03-01T07:52:49;101873.84;;;-2.78
27815;BMP280;15190;52.122;9.956;2023-03-01T07:55:18;101865.75;;;-2.63
27815;BMP280;15190;52.122;9.956;2023-03-01T07:57:44;101875.69;;;-2.56
27815;BMP280;15190;52.122;9.956;2023-03-01T08:00:11;101875.88;;;-2.55
27815;BMP280;15190;52.122;9.956;2023-03-01T08:02:37;101870.56;;;-2.51
27815;BMP280;15190;52.122;9.956;2023-03-01T08:05:04;101875.94;;;-2.34
27815;BMP280;15190;52.122;9.956;2023-03-01T08:07:30;101864.47;;;-2.27
27815;BMP280;15190;52.122;9.956;2023-03-01T08:09:56;101874.75;;;-2.17
27815;BMP280;15190;52.122;9.956;2023-03-01T08:12:22;101868.91;;;-2.03
27815;BMP280;15190;52.122;9.956;2023-03-01T08:14:48;101866.66;;;-1.95
27815;BMP280;15190;52.122;9.956;2023-03-01T08:17:14;101856.56;;;-1.83
27815;BMP280;15190;52.122;9.956;2023-03-01T08:19:40;101856.56;;;-1.76
27815;BMP280;15190;52.122;9.956;2023-03-01T08:22:06;101844.00;;;-1.63
27815;BMP280;15190;52.122;9.956;2023-03-01T08:24:32;101857.63;;;-1.53
27815;BMP280;15190;52.122;9.956;2023-03-01T08:26:57;101855.50;;;-1.43
27815;BMP280;15190;52.122;9.956;2023-03-01T08:29:23;101864.19;;;-1.33
27815;BMP280;15190;52.122;9.956;2023-03-01T08:31:50;101855.63;;;-1.21
27815;BMP280;15190;52.122;9.956;2023-03-01T08:34:17;101850.47;;;-1.16
27815;BMP280;15190;52.122;9.956;2023-03-01T08:36:45;101855.44;;;-1.09
27815;BMP280;15190;52.122;9.956;2023-03-01T08:39:14;101844.91;;;-0.92
27815;BMP280;15190;52.122;9.956;2023-03-01T08:41:40;101842.78;;;-0.82
27815;BMP280;15190;52.122;9.956;2023-03-01T08:44:07;101841.31;;;-0.74
27815;BMP280;15190;52.122;9.956;2023-03-01T08:46:39;101846.38;;;-0.58
27815;BMP280;15190;52.122;9.956;2023-03-01T08:49:07;101838.69;;;-0.46
27815;BMP280;15190;52.122;9.956;2023-03-01T08:51:34;101837.41;;;-0.36
27815;BMP280;15190;52.122;9.956;2023-03-01T08:54:21;101845.88;;;-0.27
27815;BMP280;15190;52.122;9.956;2023-03-01T08:56:48;101845.97;;;-0.18
27815;BMP280;15190;52.122;9.956;2023-03-01T08:59:15;101843.63;;;-0.10
27815;BMP280;15190;52.122;9.956;2023-03-01T09:01:41;101848.00;;;-0.01
27815;BMP280;15190;52.122;9.956;2023-03-01T09:04:14;101847.75;;;0.12
27815;BMP280;15190;52.122;9.956;2023-03-01T09:06:40;101841.97;;;0.20
27815;BMP280;15190;52.122;9.956;2023-03-01T09:09:06;101840.88;;;0.25
27815;BMP280;15190;52.122;9.956;2023-03-01T09:11:40;101844.13;;;0.39
27815;BMP280;15190;52.122;9.956;2023-03-01T09:14:06;101841.38;;;0.51
27815;BMP280;15190;52.122;9.956;2023-03-01T09:16:32;101830.78;;;0.61
27815;BMP280;15190;52.122;9.956;2023-03-01T09:19:02;101826.31;;;0.80
27815;BMP280;15190;52.122;9.956;2023-03-01T09:21:28;101835.91;;;1.00
27815;BMP280;15190;52.122;9.956;2023-03-01T09:23:55;101829.78;;;1.20
27815;BMP280;15190;52.122;9.956;2023-03-01T09:26:22;101823.25;;;1.44
27815;BMP280;15190;52.122;9.956;2023-03-01T09:28:51;101830.34;;;1.72
27815;BMP280;15190;52.122;9.956;2023-03-01T09:31:19;101817.94;;;2.04
27815;BMP280;15190;52.122;9.956;2023-03-01T09:33:47;101814.81;;;2.30
27815;BMP280;15190;52.122;9.956;2023-03-01T09:36:19;101813.75;;;2.60
27815;BMP280;15190;52.122;9.956;2023-03-01T09:38:46;101810.56;;;2.78
27815;BMP280;15190;52.122;9.956;2023-03-01T09:43:55;101805.03;;;2.97
27815;BMP280;15190;52.122;9.956;2023-03-01T09:46:24;101800.19;;;3.07
27815;BMP280;15190;52.122;9.956;2023-03-01T09:49:05;101802.81;;;3.25
27815;BMP280;15190;52.122;9.956;2023-03-01T09:51:35;101800.94;;;3.31
27815;BMP280;15190;52.122;9.956;2023-03-01T09:54:02;101799.59;;;3.51
27815;BMP280;15190;52.122;9.956;2023-03-01T09:56:52;101793.69;;;3.68
27815;BMP280;15190;52.122;9.956;2023-03-01T09:59:26;101791.91;;;3.84
27815;BMP280;15190;52.122;9.956;2023-03-01T10:04:48;101788.53;;;4.18
27815;BMP280;15190;52.122;9.956;2023-03-01T10:07:36;101782.72;;;4.36
27815;BMP280;15190;52.122;9.956;2023-03-01T10:10:07;101785.47;;;4.47
27815;BMP280;15190;52.122;9.956;2023-03-01T10:12:39;101776.38;;;4.66
27815;BMP280;15190;52.122;9.956;2023-03-01T10:15:16;101777.34;;;4.76
27815;BMP280;15190;52.122;9.956;2023-03-01T10:17:51;101781.75;;;4.79
27815;BMP280;15190;52.122;9.956;2023-03-01T10:20:26;101778.97;;;4.94
27815;BMP280;15190;52.122;9.956;2023-03-01T10:22:52;101777.84;;;5.09
27815;BMP280;15190;52.122;9.956;2023-03-01T10:25:36;101769.63;;;5.20
27815;BMP280;15190;52.122;9.956;2023-03-01T10:28:16;101784.81;;;5.40
27815;BMP280;15190;52.122;9.956;2023-03-01T10:30:42;101779.59;;;5.46
27815;BMP280;15190;52.122;9.956;2023-03-01T10:33:22;101773.34;;;5.51
27815;BMP280;15190;52.122;9.956;2023-03-01T10:35:49;101768.44;;;5.71
27815;BMP280;15190;52.122;9.956;2023-03-01T10:38:16;101764.25;;;5.80
27815;BMP280;15190;52.122;9.956;2023-03-01T10:40:54;101767.41;;;5.87
27815;BMP280;15190;52.122;9.956;2023-03-01T10:43:20;101760.88;;;5.89
27815;BMP280;15190;52.122;9.956;2023-03-01T10:45:47;101767.81;;;5.92
27815;BMP280;15190;52.122;9.956;2023-03-01T10:50:44;101766.94;;;6.01
27815;BMP280;15190;52.122;9.956;2023-03-01T10:53:27;101763.53;;;5.91
27815;BMP280;15190;52.122;9.956;2023-03-01T10:56:09;101755.28;;;6.02
27815;BMP280;15190;52.122;9.956;2023-03-01T10:58:37;101758.69;;;6.12
27815;BMP280;15190;52.122;9.956;2023-03-01T11:01:06;101758.84;;;6.14
27815;BMP280;15190;52.122;9.956;2023-03-01T11:04:13;101765.31;;;6.02
27815;BMP280;15190;52.122;9.956;2023-03-01T11:06:41;101757.19;;;6.14
27815;BMP280;15190;52.122;9.956;2023-03-01T11:09:20;101761.09;;;6.21
27815;BMP280;15190;52.122;9.956;2023-03-01T11:11:51;101754.59;;;6.22
27815;BMP280;15190;52.122;9.956;2023-03-01T11:14:26;101756.38;;;6.33
27815;BMP280;15190;52.122;9.956;2023-03-01T11:17:03;101751.81;;;6.29
27815;BMP280;15190;52.122;9.956;2023-03-01T11:19:30;101751.44;;;6.35
27815;BMP280;15190;52.122;9.956;2023-03-01T11:22:12;101753.72;;;6.42
27815;BMP280;15190;52.122;9.956;2023-03-01T11:24:46;101747.91;;;6.33
27815;BMP280;15190;52.122;9.956;2023-03-01T11:27:24;101738.66;;;6.32
27815;BMP280;15190;52.122;9.956;2023-03-01T11:32:34;101739.66;;;6.34
27815;BMP280;15190;52.122;9.956;2023-03-01T11:37:40;101729.50;;;6.42
27815;BMP280;15190;52.122;9.956;2023-03-01T11:45:11;101737.75;;;6.51
27815;BMP280;15190;52.122;9.956;2023-03-01T11:50:08;101732.75;;;6.61
27815;BMP280;15190;52.122;9.956;2023-03-01T11:55:44;101726.09;;;6.52
27815;BMP280;15190;52.122;9.956;2023-03-01T11:58:31;101729.50;;;6.52
27815;BMP280;15190;52.122;9.956;2023-03-01T12:01:10;101726.09;;;6.52
27815;BMP280;15190;52.122;9.956;2023-03-01T12:14:34;101710.03;;;6.69
27815;BMP280;15190;52.122;9.956;2023-03-01T12:22:33;101702.94;;;6.85
27815;BMP280;15190;52.122;9.956;2023-03-01T12:30:59;101687.75;;;6.84
27815;BMP280;15190;52.122;9.956;2023-03-01T12:38:56;101671.50;;;7.00
27815;BMP280;15190;52.122;9.956;2023-03-01T12:44:13;101671.00;;;7.04
27815;BMP280;15190;52.122;9.956;2023-03-01T12:46:57;101665.69;;;7.11
27815;BMP280;15190;52.122;9.956;2023-03-01T12:49:41;101671.19;;;7.17
27815;BMP280;15190;52.122;9.956;2023-03-01T12:52:18;101661.38;;;7.20
27815;BMP280;15190;52.122;9.956;2023-03-01T12:54:49;101658.75;;;7.18
27815;BMP280;15190;52.122;9.956;2023-03-01T12:57:28;101647.41;;;7.23
27815;BMP280;15190;52.122;9.956;2023-03-01T13:00:09;101640.88;;;7.25
27815;BMP280;15190;52.122;9.956;2023-03-01T13:02:47;101630.41;;;7.31
27815;BMP280;15190;52.122;9.956;2023-03-01T13:05:23;101619.41;;;7.40
27815;BMP280;15190;52.122;9.956;2023-03-01T13:10:55;101617.59;;;7.49
27815;BMP280;15190;52.122;9.956;2023-03-01T13:13:26;101608.69;;;7.64
27815;BMP280;15190;52.122;9.956;2023-03-01T13:15:53;101610.94;;;7.71
27815;BMP280;15190;52.122;9.956;2023-03-01T13:20:49;101607.91;;;7.86
27815;BMP280;15190;52.122;9.956;2023-03-01T13:31:06;101605.38;;;8.28
27815;BMP280;15190;52.122;9.956;2023-03-01T13:36:02;101598.91;;;8.43
27815;BMP280;15190;52.122;9.956;2023-03-01T13:41:14;101587.53;;;8.48
27815;BMP280;15190;52.122;9.956;2023-03-01T13:43:42;101587.78;;;8.51
27815;BMP280;15190;52.122;9.956;2023-03-01T13:46:21;101589.94;;;8.58
27815;BMP280;15190;52.122;9.956;2023-03-01T13:48:51;101581.84;;;8.85
27815;BMP280;15190;52.122;9.956;2023-03-01T13:51:23;101586.34;;;9.00
27815;BMP280;15190;52.122;9.956;2023-03-01T13:53:51;101580.28;;;9.09
27815;BMP280;15190;52.122;9.956;2023-03-01T13:56:23;101570.31;;;9.11
27815;BMP280;15190;52.122;9.956;2023-03-01T13:58:53;101576.44;;;9.26
27815;BMP280;15190;52.122;9.956;2023-03-01T14:01:27;101562.03;;;9.36
27815;BMP280;15190;52.122;9.956;2023-03-01T14:03:53;101558.63;;;9.35
27815;BMP280;15190;52.122;9.956;2023-03-01T14:06:25;101572.13;;;9.36
27815;BMP280;15190;52.122;9.956;2023-03-01T14:09:01;101562.84;;;9.48
27815;BMP280;15190;52.122;9.956;2023-03-01T14:14:41;101558.81;;;9.74
27815;BMP280;15190;52.122;9.956;2023-03-01T14:19:55;101550.56;;;9.76
27815;BMP280;15190;52.122;9.956;2023-03-01T14:22:32;101550.19;;;9.83
27815;BMP280;15190;52.122;9.956;2023-03-01T14:25:01;101543.38;;;9.94
27815;BMP280;15190;52.122;9.956;2023-03-01T14:27:33;101545.53;;;10.01
27815;BMP280;15190;52.122;9.956;2023-03-01T14:30:04;101552.66;;;10.06
27815;BMP280;15190;52.122;9.956;2023-03-01T14:32:35;101547.38;;;10.03
27815;BMP280;15190;52.122;9.956;2023-03-01T14:35:01;101541.94;;;9.97
27815;BMP280;15190;52.122;9.956;2023-03-01T14:37:32;101532.47;;;9.95
27815;BMP280;15190;52.122;9.956;2023-03-01T14:40:00;101544.56;;;9.87
27815;BMP280;15190;52.122;9.956;2023-03-01T14:42:36;101548.88;;;9.88
27815;BMP280;15190;52.122;9.956;2023-03-01T14:45:04;101545.03;;;9.93
27815;BMP280;15190;52.122;9.956;2023-03-01T14:47:35;101541.53;;;9.80
27815;BMP280;15190;52.122;9.956;2023-03-01T14:52:37;101536.59;;;9.81
27815;BMP280;15190;52.122;9.956;2023-03-01T14:55:35;101544.41;;;9.73
27815;BMP280;15190;52.122;9.956;2023-03-01T14:58:04;101537.28;;;9.79
27815;BMP280;15190;52.122;9.956;2023-03-01T15:00:32;101531.13;;;9.75
27815;BMP280;15190;52.122;9.956;2023-03-01T15:03:14;101530.75;;;9.58
27815;BMP280;15190;52.122;9.956;2023-03-01T15:05:43;101528.19;;;9.45
27815;BMP280;15190;52.122;9.956;2023-03-01T15:08:17;101526.63;;;9.47
27815;BMP280;15190;52.122;9.956;2023-03-01T15:10:56;101516.31;;;9.44
27815;BMP280;15190;52.122;9.956;2023-03-01T15:13:24;101510.09;;;9.39
27815;BMP280;15190;52.122;9.956;2023-03-01T15:16:02;101513.84;;;9.33
27815;BMP280;15190;52.122;9.956;2023-03-01T15:18:29;101517.06;;;9.19
27815;BMP280;15190;52.122;9.956;2023-03-01T15:20:56;101512.28;;;9.11
27815;BMP280;15190;52.122;9.956;2023-03-01T15:23:30;101514.16;;;9.02
27815;BMP280;15190;52.122;9.956;2023-03-01T15:25:57;101511.00;;;8.93
27815;BMP280;15190;52.122;9.956;2023-03-01T15:28:26;101503.09;;;8.89
27815;BMP280;15190;52.122;9.956;2023-03-01T15:30:56;101499.28;;;8.82
27815;BMP280;15190;52.122;9.956;2023-03-01T15:35:57;101482.28;;;8.68
27815;BMP280;15190;52.122;9.956;2023-03-01T15:38:35;101484.16;;;8.59
27815;BMP280;15190;52.122;9.956;2023-03-01T15:41:23;101483.63;;;8.52
27815;BMP280;15190;52.122;9.956;2023-03-01T15:43:49;101478.28;;;8.48
27815;BMP280;15190;52.122;9.956;2023-03-01T15:46:29;101484.72;;;8.33
27815;BMP280;15190;52.122;9.956;2023-03-01T15:49:05;101486.81;;;8.16
27815;BMP280;15190;52.122;9.956;2023-03-01T15:51:45;101481.66;;;8.14